Time;durP1;ratioP1;P1;durP2;ratioP2;P2;SDS_P1;SDS_P2;PMS_P1;PMS_P2;Temp;Humidity;BMP_temperature;BMP_pressure;BME280_temperature;BME280_humidity;BME280_pressure;Samples;Min_cycle;Max_cycle;Signal;HPM_P1;HPM_P2
2022/05/27 04:00:03;;;;;;;4.45;2.00;;;;;;;19.16;66.31;100893.66;5605552;31;93975;-55
2022/05/27 04:03:13;;;;;;;3.12;1.92;;;;;;;19.18;63.16;100894.94;5583768;32;34014;-55
2022/05/27 04:06:16;;;;;;;4.43;1.98;;;;;;;19.24;62.25;100896.34;5583834;31;33495;-55
2022/05/27 04:09:20;;;;;;;5.22;2.15;;;;;;;19.34;62.19;100902.56;5599582;31;33696;-56
2022/05/27 04:12:22;;;;;;;3.42;1.85;;;;;;;19.38;63.38;100898.06;5603386;31;34238;-55
2022/05/27 04:15:25;;;;;;;3.55;1.70;;;;;;;19.37;68.33;100905.41;5603294;31;33568;-56
2022/05/27 04:18:27;;;;;;;3.33;1.70;;;;;;;19.35;65.03;100899.50;5602625;31;33378;-55
2022/05/27 04:21:30;;;;;;;2.83;1.67;;;;;;;19.40;62.71;100898.50;5603274;31;34299;-55
2022/05/27 04:24:33;;;;;;;2.53;1.52;;;;;;;19.49;61.37;100902.78;5603410;31;33665;-54
2022/05/27 04:27:37;;;;;;;5.53;1.62;;;;;;;19.70;58.48;100897.44;5602863;31;33628;-55
2022/05/27 04:30:39;;;;;;;3.65;1.50;;;;;;;19.77;56.15;100901.53;5603335;31;33634;-55
2022/05/27 04:33:41;;;;;;;2.50;1.50;;;;;;;19.81;55.57;100907.94;5603117;31;33623;-55
2022/05/27 04:36:43;;;;;;;12.00;2.00;;;;;;;19.91;55.64;100902.91;5593783;31;33565;-55
2022/05/27 04:39:46;;;;;;;5.93;1.50;;;;;;;19.97;59.12;100898.06;5563706;32;34224;-55
2022/05/27 04:42:48;;;;;;;4.47;1.65;;;;;;;20.06;63.75;100889.84;5569508;32;33537;-54
2022/05/27 04:45:51;;;;;;;6.80;1.40;;;;;;;20.12;58.29;100894.75;5582824;31;33552;-55
2022/05/27 04:48:54;;;;;;;4.15;1.60;;;;;;;20.08;59.39;100904.72;5582955;32;34384;-55
2022/05/27 04:51:56;;;;;;;5.07;1.58;;;;;;;20.06;59.28;100898.00;5583175;31;33593;-55
2022/05/27 04:55:02;;;;;;;2.87;1.58;;;;;;;20.08;59.28;100893.81;5583365;31;33664;-55
2022/05/27 04:58:05;;;;;;;4.25;1.58;;;;;;;20.13;63.49;100896.34;5582588;31;33744;-55
2022/05/27 05:01:07;;;;;;;3.28;1.80;;;;;;;20.12;60.52;100886.56;5582982;31;34041;-54
2022/05/27 05:04:09;;;;;;;3.55;1.40;;;;;;;20.15;57.89;100890.56;5582999;31;33607;-55
2022/05/27 05:07:12;;;;;;;2.67;1.30;;;;;;;20.22;57.25;100895.47;5582407;32;34450;-55
2022/05/27 05:10:18;;;;;;;3.05;1.37;;;;;;;20.35;57.49;100891.69;5574479;32;34215;-55
2022/05/27 05:13:21;;;;;;;2.35;1.20;;;;;;;20.46;57.34;100889.34;5569873;32;33585;-55
2022/05/27 05:16:23;;;;;;;2.95;1.50;;;;;;;20.57;53.54;100896.00;5569805;32;33693;-54
2022/05/27 05:19:25;;;;;;;3.08;1.50;;;;;;;20.74;56.10;100895.06;5569737;32;34325;-54
2022/05/27 05:22:27;;;;;;;3.85;1.50;;;;;;;20.97;63.28;100901.69;5569262;32;34216;-55
2022/05/27 05:25:30;;;;;;;11.65;2.15;;;;;;;21.14;53.82;100897.97;5569235;32;33651;-55
2022/05/27 05:28:32;;;;;;;10.00;1.85;;;;;;;21.30;55.56;100888.00;5569533;32;33768;-54
2022/05/27 05:31:35;;;;;;;3.95;1.40;;;;;;;21.45;54.92;100893.91;5568382;32;33588;-55
2022/05/27 05:34:39;;;;;;;4.97;1.58;;;;;;;21.58;52.35;100890.84;5569620;32;33598;-55
2022/05/27 05:37:42;;;;;;;5.28;1.45;;;;;;;21.55;50.80;100891.53;5569537;32;33854;-55
2022/05/27 05:40:44;;;;;;;2.30;1.48;;;;;;;21.41;50.99;100895.75;5555093;32;33699;-55
2022/05/27 05:43:46;;;;;;;4.28;1.30;;;;;;;21.45;50.95;100896.66;5567539;32;33232;-55
2022/05/27 05:46:49;;;;;;;2.37;1.48;;;;;;;21.60;51.06;100893.25;5569352;32;33586;-54
2022/05/27 05:49:52;;;;;;;3.83;1.10;;;;;;;21.70;49.41;100890.06;5569087;32;33282;-55
2022/05/27 05:52:55;;;;;;;1.12;0.80;;;;;;;21.78;44.96;100894.56;5568703;32;33618;-56
2022/05/27 05:55:58;;;;;;;1.67;1.10;;;;;;;21.85;43.07;100894.00;5568892;32;33751;-55
2022/05/27 05:59:01;;;;;;;2.80;1.10;;;;;;;21.96;41.76;100880.69;5568445;32;33217;-55
2022/05/27 06:02:05;;;;;;;3.53;0.90;;;;;;;22.09;46.29;100881.47;5568776;32;34250;-55
2022/05/27 06:05:09;;;;;;;4.62;1.08;;;;;;;22.15;43.00;100888.25;5568879;32;33655;-54
2022/05/27 06:08:11;;;;;;;1.62;0.88;;;;;;;22.18;41.15;100890.31;5568411;32;33790;-56
2022/05/27 06:11:14;;;;;;;1.45;0.90;;;;;;;22.22;43.32;100889.28;5568310;32;33927;-55
2022/05/27 06:14:16;;;;;;;2.50;1.00;;;;;;;22.36;42.71;100899.03;5568135;32;33355;-55
2022/05/27 06:17:18;;;;;;;5.07;1.10;;;;;;;22.41;43.30;100890.56;5568720;32;33700;-55
2022/05/27 06:20:21;;;;;;;3.72;1.02;;;;;;;22.45;42.94;100900.47;5568236;32;34237;-55
2022/05/27 06:23:27;;;;;;;1.85;0.80;;;;;;;22.54;42.67;100903.03;5567475;32;33680;-55
2022/05/27 06:26:30;;;;;;;3.33;1.10;;;;;;;22.61;42.68;100889.56;5568279;32;33725;-56
2022/05/27 06:36:20;;;;;;;3.47;0.80;;;;;;;22.57;42.65;100894.16;5568819;32;33994;-55
2022/05/27 06:39:23;;;;;;;2.83;1.15;;;;;;;22.68;44.19;100888.97;5568046;32;34283;-55
2022/05/27 06:42:25;;;;;;;3.85;1.02;;;;;;;22.67;43.28;100884.66;5568746;32;34389;-55
2022/05/27 06:45:39;;;;;;;4.18;1.30;;;;;;;22.70;43.18;100886.69;5568485;32;34507;-55
2022/05/27 06:48:42;;;;;;;12.63;1.37;;;;;;;22.84;43.71;100891.72;5567457;32;33697;-55
2022/05/27 06:51:44;;;;;;;1.85;0.90;;;;;;;22.88;45.36;100887.13;5566726;32;33276;-55
2022/05/27 06:54:52;;;;;;;5.80;1.35;;;;;;;22.90;43.75;100874.72;5550490;32;33763;-55
2022/05/27 06:58:01;;;;;;;2.83;0.98;;;;;;;22.96;44.83;100873.34;5549001;32;34138;-55
2022/05/27 07:01:11;;;;;;;3.17;1.00;;;;;;;23.05;44.24;100866.91;5549000;32;33328;-55
2022/05/27 07:04:14;;;;;;;2.35;1.05;;;;;;;23.10;43.69;100864.69;5559399;32;33575;-55
2022/05/27 07:07:16;;;;;;;4.87;1.10;;;;;;;23.19;43.56;100861.78;5568024;32;34371;-55
2022/05/27 07:10:18;;;;;;;3.72;1.00;;;;;;;23.20;43.00;100868.84;5567702;32;33508;-55
2022/05/27 07:13:21;;;;;;;1.70;0.90;;;;;;;23.21;41.93;100864.94;5565306;32;33690;-55
2022/05/27 07:16:23;;;;;;;1.58;1.02;;;;;;;23.19;41.10;100868.06;5568178;32;34325;-55
2022/05/27 07:19:25;;;;;;;0.95;0.75;;;;;;;23.29;41.72;100866.72;5561123;32;33701;-55
2022/05/27 07:22:27;;;;;;;3.33;1.10;;;;;;;23.32;41.79;100868.75;5567228;32;33667;-56
2022/05/27 07:25:34;;;;;;;1.37;0.90;;;;;;;23.30;41.87;100864.78;5562337;32;33605;-55
2022/05/27 07:28:41;;;;;;;4.05;1.23;;;;;;;23.28;41.86;100856.12;5559325;32;33697;-55
2022/05/27 07:31:44;;;;;;;3.95;1.02;;;;;;;23.25;41.77;100841.25;5568272;32;34776;-55
2022/05/27 07:34:47;;;;;;;3.12;0.77;;;;;;;23.32;43.12;100846.87;5568321;32;33672;-54
2022/05/27 07:37:49;;;;;;;2.05;1.10;;;;;;;23.36;42.06;100846.94;5567956;32;34348;-55
2022/05/27 07:40:52;;;;;;;4.20;1.12;;;;;;;23.39;40.93;100846.25;5567601;32;34191;-55
2022/05/27 07:43:55;;;;;;;2.70;1.10;;;;;;;23.35;41.05;100842.62;5568260;32;33553;-55
2022/05/27 07:46:57;;;;;;;3.67;0.90;;;;;;;23.40;41.58;100845.09;5567083;32;34316;-55
2022/05/27 07:49:59;;;;;;;2.83;1.20;;;;;;;23.50;42.95;100849.22;5566603;32;33471;-55
2022/05/27 07:53:03;;;;;;;3.00;1.67;;;;;;;23.50;42.05;100843.75;5567982;32;33605;-55
2022/05/27 07:56:07;;;;;;;3.60;1.10;;;;;;;23.64;41.15;100838.56;5567857;32;33582;-55
2022/05/27 07:59:09;;;;;;;4.68;1.20;;;;;;;23.64;43.77;100839.41;5558014;32;33633;-55
2022/05/27 08:02:13;;;;;;;3.12;1.50;;;;;;;23.68;42.58;100843.03;5555794;32;33575;-55
2022/05/27 08:05:21;;;;;;;2.33;1.20;;;;;;;23.74;42.14;100834.50;5554852;32;33812;-56
2022/05/27 08:08:23;;;;;;;4.78;1.30;;;;;;;23.70;42.11;100836.38;5560613;32;33657;-55
2022/05/27 08:11:25;;;;;;;4.05;0.95;;;;;;;23.79;42.55;100828.78;5567146;32;33347;-55
2022/05/27 08:14:27;;;;;;;7.43;1.30;;;;;;;23.86;42.93;100826.19;5566076;32;33632;-55
2022/05/27 08:17:31;;;;;;;1.95;1.00;;;;;;;23.81;41.55;100816.31;5563648;32;34103;-55
2022/05/27 08:20:35;;;;;;;2.83;1.45;;;;;;;23.75;41.01;100827.91;5566786;32;34221;-55
2022/05/27 08:23:38;;;;;;;8.45;1.20;;;;;;;23.70;41.10;100825.44;5566474;32;33654;-56
2022/05/27 08:26:40;;;;;;;4.95;1.10;;;;;;;23.70;41.33;100833.66;5566825;32;34390;-56
2022/05/27 08:29:42;;;;;;;6.70;1.23;;;;;;;23.81;41.65;100821.00;5566876;32;33720;-55
2022/05/27 08:32:47;;;;;;;4.25;1.15;;;;;;;23.97;41.06;100820.91;5566882;32;33659;-55
2022/05/27 08:39:12;;;;;;;2.70;1.15;;;;;;;23.84;41.64;100817.53;5566668;32;34283;-55
2022/05/27 08:42:32;;;;;;;4.68;1.10;;;;;;;23.81;41.18;100813.59;5566021;32;33690;-55
2022/05/27 08:45:56;;;;;;;4.82;1.45;;;;;;;23.80;41.60;100819.41;5563692;32;33553;-55
2022/05/27 08:49:05;;;;;;;5.43;1.27;;;;;;;23.77;41.85;100798.22;5558742;32;34664;-55
2022/05/27 08:52:36;;;;;;;1.90;1.10;;;;;;;23.86;42.84;100791.38;5560074;32;33821;-55
2022/05/27 08:59:28;;;;;;;5.43;1.20;;;;;;;23.98;42.69;100790.44;5553944;32;33322;-56
2022/05/27 09:02:39;;;;;;;9.30;2.37;;;;;;;24.12;41.26;100785.25;5561965;32;32552;-55
2022/05/27 09:06:01;;;;;;;15.77;2.10;;;;;;;24.20;42.05;100782.63;5562742;32;34285;-55
2022/05/27 09:09:07;;;;;;;41.08;4.43;;;;;;;24.27;41.63;100783.56;5561463;32;34351;-55
2022/05/27 09:12:19;;;;;;;15.18;1.70;;;;;;;24.27;40.32;100796.47;5561849;32;34381;-56
2022/05/27 09:15:47;;;;;;;12.50;1.52;;;;;;;24.29;40.30;100767.56;5563463;32;34379;-56
2022/05/27 09:19:05;;;;;;;10.90;1.58;;;;;;;24.35;41.38;100779.00;5554823;32;34277;-55
2022/05/27 09:22:17;;;;;;;4.35;1.25;;;;;;;24.43;40.23;100778.00;5563728;32;34446;-56
2022/05/27 09:25:25;;;;;;;3.10;1.50;;;;;;;24.32;41.64;100786.00;5563359;32;33767;-55
2022/05/27 09:29:06;;;;;;;2.60;0.98;;;;;;;24.33;40.31;100762.91;5565125;32;33770;-56
2022/05/27 09:32:15;;;;;;;5.60;1.42;;;;;;;24.25;39.53;100772.19;5560642;32;34265;-55
2022/05/27 09:35:22;;;;;;;4.53;1.30;;;;;;;24.32;41.11;100760.56;5566632;32;34441;-55
2022/05/27 09:38:55;;;;;;;8.30;1.83;;;;;;;24.32;41.70;100755.87;5565446;32;33710;-55
2022/05/27 09:42:17;;;;;;;7.87;1.30;;;;;;;24.33;41.67;100756.66;5562094;32;33663;-56
2022/05/27 09:45:20;;;;;;;5.37;1.20;;;;;;;24.22;40.58;100745.50;5561931;32;33666;-55
2022/05/27 09:48:22;;;;;;;8.25;1.30;;;;;;;24.27;41.08;100753.44;5560372;32;34471;-55
2022/05/27 09:51:28;;;;;;;3.03;1.20;;;;;;;24.33;41.11;100746.47;5560458;32;33716;-56
2022/05/27 09:54:37;;;;;;;5.57;1.27;;;;;;;24.19;40.19;100732.53;5567292;32;31959;-55
2022/05/27 09:58:04;;;;;;;8.23;1.20;;;;;;;24.16;41.05;100744.22;5568102;32;34315;-56
2022/05/27 10:01:27;;;;;;;6.37;1.40;;;;;;;24.20;40.27;100723.16;5565945;32;34372;-54
2022/05/27 10:04:30;;;;;;;5.28;1.40;;;;;;;24.07;41.13;100721.75;5566360;32;33768;-56
2022/05/27 10:07:38;;;;;;;6.40;1.00;;;;;;;23.91;41.65;100728.13;5562711;32;34105;-56
2022/05/27 10:10:42;;;;;;;3.75;1.25;;;;;;;23.86;41.67;100724.87;5560161;32;34527;-55
2022/05/27 10:13:45;;;;;;;5.75;1.50;;;;;;;23.85;41.33;100726.03;5566005;32;33681;-54
2022/05/27 10:17:09;;;;;;;3.72;1.05;;;;;;;23.89;41.63;100730.44;5564475;32;33616;-56
2022/05/27 10:20:29;;;;;;;2.78;1.20;;;;;;;23.99;42.00;100723.56;5566770;32;33503;-55
2022/05/27 10:23:35;;;;;;;6.35;1.60;;;;;;;23.97;41.85;100714.13;5566900;32;33666;-56
2022/05/27 10:26:37;;;;;;;3.40;1.23;;;;;;;23.97;43.04;100709.44;5567451;32;33814;-55
2022/05/27 10:29:51;;;;;;;5.53;1.30;;;;;;;23.96;42.08;100691.44;5564213;32;33589;-56
2022/05/27 10:32:55;;;;;;;3.85;1.37;;;;;;;24.11;42.75;100690.53;5563651;32;33948;-56
2022/05/27 10:35:58;;;;;;;4.47;1.23;;;;;;;24.21;42.11;100686.41;5564742;32;34369;-55
2022/05/27 10:39:05;;;;;;;2.00;1.10;;;;;;;24.30;41.79;100675.19;5568123;32;32199;-56
2022/05/27 10:42:33;;;;;;;2.10;1.17;;;;;;;24.34;42.69;100681.53;5562544;32;34318;-55
2022/05/27 10:45:43;;;;;;;5.85;1.30;;;;;;;24.38;42.53;100655.78;5563717;32;34314;-55
2022/05/27 10:49:01;;;;;;;4.12;1.25;;;;;;;24.51;42.05;100666.56;5564837;32;34359;-55
2022/05/27 10:52:03;;;;;;;3.03;1.30;;;;;;;24.51;41.03;100656.41;5565747;32;33760;-55
2022/05/27 10:55:13;;;;;;;6.75;1.40;;;;;;;24.54;41.39;100652.94;5555372;32;33658;-56
2022/05/27 11:02:06;;;;;;;1.95;1.23;;;;;;;24.73;41.18;100629.28;5562752;32;33734;-55
2022/05/27 11:05:23;;;;;;;3.10;1.37;;;;;;;24.95;41.89;100625.69;5559292;32;33308;-55
2022/05/27 11:08:28;;;;;;;4.03;1.02;;;;;;;25.21;41.58;100626.81;5564475;32;33684;-56
2022/05/27 11:11:43;;;;;;;2.00;1.12;;;;;;;25.26;40.33;100610.03;5557668;32;32487;-55
2022/05/27 11:15:11;;;;;;;5.47;1.50;;;;;;;25.33;39.98;100621.09;5566914;32;34344;-55
2022/05/27 11:18:16;;;;;;;6.20;1.50;;;;;;;25.48;40.36;100600.09;5568220;32;33737;-56
2022/05/27 11:21:36;;;;;;;2.42;1.52;;;;;;;25.63;41.55;100592.75;5556377;32;34385;-56
2022/05/27 11:25:05;;;;;;;2.95;1.30;;;;;;;25.70;39.73;100604.62;5563949;32;34397;-55
2022/05/27 11:28:45;;;;;;;3.67;1.50;;;;;;;25.73;41.49;100589.37;5562954;32;33709;-55
2022/05/27 11:32:06;;;;;;;4.50;1.37;;;;;;;25.66;39.79;100579.09;5557977;31;34267;-56
2022/05/27 11:35:27;;;;;;;5.15;1.23;;;;;;;25.68;40.14;100581.47;5566346;32;34189;-55
2022/05/27 11:38:58;;;;;;;3.15;1.45;;;;;;;25.68;40.26;100579.50;5565714;32;33712;-55
2022/05/27 11:42:24;;;;;;;3.28;1.23;;;;;;;25.54;40.95;100574.66;5564874;32;34423;-55
2022/05/27 11:45:29;;;;;;;2.65;1.00;;;;;;;25.50;40.18;100564.81;5555414;32;33649;-56
2022/05/27 11:48:47;;;;;;;1.85;1.17;;;;;;;25.55;41.61;100551.53;5566131;32;33739;-55
2022/05/27 11:52:08;;;;;;;1.45;1.27;;;;;;;25.59;41.44;100557.03;5556530;32;34361;-55
2022/05/27 11:55:52;;;;;;;3.28;1.40;;;;;;;25.69;41.97;100550.88;5566674;32;33699;-55
2022/05/27 11:59:07;;;;;;;5.35;1.60;;;;;;;25.74;41.11;100541.50;5564746;32;34407;-55
2022/05/27 12:02:53;;;;;;;3.62;1.27;;;;;;;25.74;40.61;100525.03;5568456;32;33712;-56
2022/05/27 12:06:04;;;;;;;3.10;1.30;;;;;;;25.75;39.71;100515.63;5544433;32;33642;-55
2022/05/27 12:09:22;;;;;;;2.85;1.27;;;;;;;25.80;39.86;100520.00;5566887;32;33354;-56
2022/05/27 12:12:30;;;;;;;1.42;1.10;;;;;;;25.84;40.69;100518.09;5564556;32;33590;-56
2022/05/27 12:15:39;;;;;;;4.25;1.50;;;;;;;25.81;40.39;100496.88;5568290;32;34518;-55
2022/05/27 12:18:54;;;;;;;3.30;1.50;;;;;;;25.67;40.69;100503.00;5566474;32;33835;-55
2022/05/27 12:22:18;;;;;;;3.70;1.37;;;;;;;25.59;40.63;100496.66;5567736;32;33756;-56
2022/05/27 12:25:28;;;;;;;5.25;1.35;;;;;;;25.61;40.76;100496.28;5557968;32;33653;-55
2022/05/27 12:28:39;;;;;;;2.15;1.20;;;;;;;25.63;40.96;100493.94;5569658;32;34233;-55
2022/05/27 12:31:42;;;;;;;4.55;1.65;;;;;;;25.67;40.56;100481.84;5569825;32;33693;-55
2022/05/27 12:34:48;;;;;;;7.22;1.77;;;;;;;25.70;40.32;100474.81;5566817;32;33775;-56
2022/05/27 12:37:58;;;;;;;4.55;1.40;;;;;;;25.75;41.68;100471.69;5562865;32;33641;-55
2022/05/27 12:41:05;;;;;;;5.00;1.73;;;;;;;25.76;40.47;100474.06;5567312;32;34305;-55
2022/05/27 12:44:25;;;;;;;5.43;1.50;;;;;;;25.73;41.02;100469.34;5561560;32;33755;-56
2022/05/27 12:47:35;;;;;;;6.82;1.60;;;;;;;25.70;40.82;100455.59;5569546;32;33659;-55
2022/05/27 12:50:40;;;;;;;3.08;1.40;;;;;;;25.69;41.42;100454.00;5567929;32;33439;-55
2022/05/27 12:53:52;;;;;;;3.65;1.60;;;;;;;25.77;41.98;100450.13;5568039;32;33344;-55
2022/05/27 13:04:02;;;;;;;3.90;1.50;;;;;;;25.84;41.48;100432.94;5569016;32;34314;-55
2022/05/27 13:07:05;;;;;;;2.17;1.48;;;;;;;25.76;40.74;100429.31;5567970;32;34330;-55
2022/05/27 13:10:16;;;;;;;3.28;1.40;;;;;;;25.71;41.41;100427.72;5569383;32;34203;-55
2022/05/27 13:13:22;;;;;;;4.75;1.30;;;;;;;25.75;40.40;100422.25;5565887;32;33656;-55
2022/05/27 13:17:03;;;;;;;3.58;1.30;;;;;;;25.70;41.18;100406.16;5569677;32;33712;-55
2022/05/27 13:20:24;;;;;;;2.62;1.37;;;;;;;25.72;42.46;100403.81;5566272;32;34421;-56
2022/05/27 13:23:30;;;;;;;9.40;1.60;;;;;;;25.73;41.28;100400.69;5567998;32;33720;-55
2022/05/27 13:26:47;;;;;;;3.55;1.60;;;;;;;25.75;42.03;100386.56;5567584;32;34427;-55
2022/05/27 13:29:55;;;;;;;5.70;1.62;;;;;;;25.84;41.27;100391.75;5567370;32;33579;-55
2022/05/27 13:33:05;;;;;;;12.20;1.98;;;;;;;26.01;41.25;100389.09;5569190;32;33945;-55
2022/05/27 13:36:23;;;;;;;10.02;2.20;;;;;;;26.14;41.16;100386.03;5566151;32;33724;-55
2022/05/27 13:39:35;;;;;;;6.80;1.60;;;;;;;26.12;40.72;100383.66;5566689;32;34285;-55
2022/05/27 13:42:45;;;;;;;10.48;1.80;;;;;;;26.01;40.58;100374.59;5568541;32;33758;-55
2022/05/27 13:45:53;;;;;;;10.50;1.87;;;;;;;25.92;40.67;100371.38;5563444;32;34219;-55
2022/05/27 13:49:21;;;;;;;11.07;1.70;;;;;;;25.85;41.06;100369.41;5567505;32;33900;-55
2022/05/27 13:52:32;;;;;;;6.18;1.80;;;;;;;25.84;41.19;100361.56;5562653;32;33732;-55
2022/05/27 13:55:35;;;;;;;5.82;1.60;;;;;;;25.95;41.12;100359.63;5569684;32;34425;-55
2022/05/27 13:58:50;;;;;;;11.07;2.17;;;;;;;26.10;41.05;100342.06;5568115;32;33701;-55
2022/05/27 14:01:56;;;;;;;7.32;1.90;;;;;;;26.22;40.46;100338.16;5560327;32;33630;-55
2022/05/27 14:05:19;;;;;;;5.47;1.50;;;;;;;26.26;41.82;100330.72;5563992;32;33741;-55
2022/05/27 14:08:33;;;;;;;12.57;2.00;;;;;;;26.33;39.54;100322.50;5568149;32;34262;-55
2022/05/27 14:11:35;;;;;;;8.98;1.92;;;;;;;26.30;39.44;100326.03;5568259;32;34370;-55
2022/05/27 14:14:42;;;;;;;10.30;2.25;;;;;;;26.20;40.34;100322.06;5569845;32;33733;-55
2022/05/27 14:17:47;;;;;;;12.50;2.00;;;;;;;26.13;41.24;100313.03;5568459;32;33686;-56
2022/05/27 14:24:22;;;;;;;4.82;1.73;;;;;;;26.15;40.99;100305.94;5569450;32;33797;-55
2022/05/27 14:27:27;;;;;;;5.80;1.95;;;;;;;26.29;41.48;100298.91;5566674;32;33382;-55
2022/05/27 14:30:39;;;;;;;4.87;1.70;;;;;;;26.36;43.07;100298.97;5554629;32;33757;-55
2022/05/27 14:33:49;;;;;;;3.92;1.92;;;;;;;26.30;41.43;100287.56;5562793;32;33887;-55
2022/05/27 14:37:00;;;;;;;4.95;1.67;;;;;;;26.23;41.90;100296.56;5565575;32;33472;-56
2022/05/27 14:40:07;;;;;;;3.22;1.62;;;;;;;26.27;40.88;100287.56;5550235;32;34276;-55
2022/05/27 14:43:33;;;;;;;10.63;1.98;;;;;;;26.32;41.50;100279.69;5549064;32;33147;-55
2022/05/27 14:46:38;;;;;;;3.95;1.50;;;;;;;26.40;40.00;100269.53;5550118;32;34395;-55
2022/05/27 14:49:53;;;;;;;4.97;1.87;;;;;;;26.40;40.75;100269.53;5550279;32;34588;-55
2022/05/27 14:52:59;;;;;;;2.22;1.60;;;;;;;26.52;40.28;100268.38;5550053;32;34463;-55
2022/05/27 14:56:02;;;;;;;4.82;1.50;;;;;;;26.54;40.65;100264.06;5549690;32;33802;-55
2022/05/27 14:59:08;;;;;;;5.05;1.55;;;;;;;26.52;40.50;100262.88;5549977;32;33826;-55
